Time;durP1;ratioP1;P1;durP2;ratioP2;P2;SDS_P1;SDS_P2;PMS_P1;PMS_P2;Temp;Humidity;BMP_temperature;BMP_pressure;BME280_temperature;BME280_humidity;BME280_pressure;Samples;Min_cycle;Max_cycle;Signal;HPM_P1;HPM_P2
2020/12/24 00:01:32;;;;;;;;;;;13.20;66.80;;;;;;5092875;28;19924;-75
2020/12/24 00:03:58;;;;;;;;;;;12.90;64.50;;;;;;5092679;28;19935;-76
2020/12/24 00:06:24;;;;;;;;;;;12.90;68.20;;;;;;5092523;28;20367;-77
2020/12/24 00:08:50;;;;;;;;;;;12.80;67.70;;;;;;5092492;28;19932;-77
2020/12/24 00:11:17;;;;;;;;;;;12.90;69.20;;;;;;5092846;28;19950;-76
2020/12/24 00:13:43;;;;;;;;;;;13.00;68.10;;;;;;5092563;28;20380;-77
2020/12/24 00:16:09;;;;;;;;;;;13.00;65.00;;;;;;5100352;28;19931;-72
2020/12/24 00:18:36;;;;;;;;;;;13.00;66.00;;;;;;5112944;28;19927;-73
2020/12/24 00:21:07;;;;;;;;;;;13.00;67.30;;;;;;5112405;28;20249;-76
2020/12/24 00:23:33;;;;;;;;;;;12.90;65.50;;;;;;5112853;28;19975;-73
2020/12/24 00:26:00;;;;;;;;;;;13.20;66.70;;;;;;5089934;28;19924;-73
2020/12/24 00:28:26;;;;;;;;;;;12.60;65.20;;;;;;5092564;28;19928;-73
2020/12/24 00:30:52;;;;;;;;;;;12.50;66.70;;;;;;5112787;28;19924;-74
2020/12/24 00:33:19;;;;;;;;;;;12.40;67.50;;;;;;5096534;28;19931;-72
2020/12/24 00:35:45;;;;;;;;;;;12.30;68.50;;;;;;5092188;28;19924;-73
2020/12/24 00:38:11;;;;;;;;;;;12.20;69.60;;;;;;5091912;28;19928;-73
2020/12/24 00:40:37;;;;;;;;;;;12.40;71.20;;;;;;5093819;28;19931;-73
2020/12/24 00:43:04;;;;;;;;;;;12.40;68.50;;;;;;5112141;28;20193;-72
2020/12/24 00:45:30;;;;;;;;;;;12.30;68.30;;;;;;5112326;28;20019;-73
2020/12/24 00:47:56;;;;;;;;;;;12.30;70.40;;;;;;5111733;28;19928;-73
2020/12/24 00:50:23;;;;;;;;;;;12.10;71.70;;;;;;5110750;28;19931;-73
2020/12/24 00:52:49;;;;;;;;;;;12.30;72.60;;;;;;5091509;28;19931;-73
2020/12/24 00:55:15;;;;;;;;;;;12.10;72.40;;;;;;5092005;28;20052;-72
2020/12/24 00:57:41;;;;;;;;;;;12.10;73.00;;;;;;5091519;28;19935;-73
2020/12/24 01:00:08;;;;;;;;;;;12.20;73.10;;;;;;5073660;28;20391;-73
2020/12/24 01:02:34;;;;;;;;;;;11.90;73.40;;;;;;5091995;28;19971;-72
2020/12/24 01:05:02;;;;;;;;;;;11.80;76.60;;;;;;5091453;28;19932;-72
2020/12/24 01:07:28;;;;;;;;;;;11.90;74.90;;;;;;5091781;28;19947;-72
2020/12/24 01:09:54;;;;;;;;;;;12.00;76.50;;;;;;5091403;28;19924;-73
2020/12/24 01:12:20;;;;;;;;;;;12.10;74.50;;;;;;5091513;28;19946;-73
2020/12/24 01:14:47;;;;;;;;;;;12.20;73.70;;;;;;5091699;28;19928;-73
2020/12/24 01:17:13;;;;;;;;;;;12.50;74.20;;;;;;5091681;28;19924;-75
2020/12/24 01:19:40;;;;;;;;;;;12.60;72.90;;;;;;5073526;28;19924;-74
2020/12/24 01:22:06;;;;;;;;;;;12.60;71.40;;;;;;5091318;28;19924;-74
2020/12/24 01:24:33;;;;;;;;;;;12.40;72.10;;;;;;5091548;28;19928;-74
2020/12/24 01:26:59;;;;;;;;;;;12.00;73.90;;;;;;5103485;28;20091;-74
2020/12/24 01:29:26;;;;;;;;;;;11.60;74.80;;;;;;5072782;28;19924;-74
2020/12/24 01:31:52;;;;;;;;;;;11.60;78.40;;;;;;5090757;28;19934;-74
2020/12/24 01:34:18;;;;;;;;;;;11.50;77.70;;;;;;5109120;28;19947;-73
2020/12/24 01:36:45;;;;;;;;;;;11.40;79.90;;;;;;5109125;28;19932;-73
2020/12/24 01:39:12;;;;;;;;;;;11.70;77.90;;;;;;5090660;28;20498;-72
2020/12/24 01:41:38;;;;;;;;;;;11.70;78.20;;;;;;5101487;28;19931;-73
2020/12/24 01:44:04;;;;;;;;;;;12.10;77.40;;;;;;5111271;28;19928;-73
2020/12/24 01:46:31;;;;;;;;;;;11.90;77.40;;;;;;5111426;28;19984;-73
2020/12/24 01:49:17;;;;;;;;;;;11.80;75.40;;;;;;5110902;28;20014;-73
2020/12/24 01:51:48;;;;;;;;;;;11.60;77.20;;;;;;5098550;28;19924;-73
2020/12/24 01:54:15;;;;;;;;;;;11.60;78.40;;;;;;5090521;28;19931;-73
2020/12/24 01:56:41;;;;;;;;;;;11.90;77.70;;;;;;5090945;28;19935;-73
2020/12/24 01:59:08;;;;;;;;;;;11.60;79.00;;;;;;5090544;28;19942;-73
2020/12/24 02:01:34;;;;;;;;;;;11.70;77.90;;;;;;5090982;28;19924;-73
2020/12/24 02:04:01;;;;;;;;;;;11.90;78.80;;;;;;5090489;28;19932;-73
2020/12/24 02:06:27;;;;;;;;;;;11.80;78.10;;;;;;5090634;28;19931;-73
2020/12/24 02:08:56;;;;;;;;;;;11.90;77.10;;;;;;5090655;28;20091;-73
2020/12/24 02:11:23;;;;;;;;;;;12.00;77.10;;;;;;5090786;28;19924;-72
2020/12/24 02:13:49;;;;;;;;;;;12.40;75.40;;;;;;5090425;28;19931;-73
2020/12/24 02:16:15;;;;;;;;;;;12.40;74.90;;;;;;5090713;28;20003;-72
2020/12/24 02:18:41;;;;;;;;;;;12.60;75.70;;;;;;5090338;28;20415;-72
2020/12/24 02:21:08;;;;;;;;;;;12.30;75.70;;;;;;5099025;28;20173;-72
2020/12/24 02:23:34;;;;;;;;;;;12.40;76.70;;;;;;5110639;28;20434;-73
2020/12/24 02:26:01;;;;;;;;;;;12.40;76.60;;;;;;5110828;28;19931;-73
2020/12/24 02:28:27;;;;;;;;;;;12.40;76.40;;;;;;5097606;28;19934;-73
2020/12/24 02:30:53;;;;;;;;;;;12.60;76.00;;;;;;5072436;28;19924;-74
2020/12/24 02:33:20;;;;;;;;;;;12.80;76.10;;;;;;5095957;28;19924;-74
2020/12/24 02:35:46;;;;;;;;;;;12.90;76.00;;;;;;5090382;28;19928;-73
2020/12/24 02:38:12;;;;;;;;;;;13.00;75.60;;;;;;5104908;28;19924;-74
2020/12/24 02:40:38;;;;;;;;;;;12.90;75.80;;;;;;5107275;28;19923;-74
2020/12/24 02:43:05;;;;;;;;;;;12.90;74.50;;;;;;5090122;28;20557;-74
2020/12/24 02:45:31;;;;;;;;;;;13.00;75.70;;;;;;5090573;28;19964;-74
2020/12/24 02:47:57;;;;;;;;;;;12.80;75.20;;;;;;5089508;28;19928;-72
2020/12/24 02:50:24;;;;;;;;;;;12.90;75.40;;;;;;5089461;28;19943;-72
2020/12/24 02:52:50;;;;;;;;;;;13.10;74.30;;;;;;5089604;28;20300;-72
2020/12/24 02:55:16;;;;;;;;;;;12.90;74.80;;;;;;5089759;28;19924;-74
2020/12/24 02:57:43;;;;;;;;;;;13.10;75.00;;;;;;5090290;28;19931;-73
2020/12/24 03:00:10;;;;;;;;;;;13.50;73.10;;;;;;5072057;28;19947;-73
2020/12/24 03:02:36;;;;;;;;;;;13.60;72.30;;;;;;5089950;28;20308;-73
2020/12/24 03:05:03;;;;;;;;;;;13.80;72.30;;;;;;5090305;28;20422;-73
2020/12/24 03:07:30;;;;;;;;;;;13.80;71.00;;;;;;5089547;28;19924;-73
2020/12/24 03:09:56;;;;;;;;;;;13.40;72.30;;;;;;5091060;28;19924;-73
2020/12/24 03:12:23;;;;;;;;;;;13.50;73.80;;;;;;5093719;28;19931;-73
2020/12/24 03:14:50;;;;;;;;;;;13.60;72.80;;;;;;5093532;28;20395;-73
2020/12/24 03:17:17;;;;;;;;;;;13.50;73.20;;;;;;5111229;28;20406;-74
2020/12/24 03:19:43;;;;;;;;;;;13.40;73.30;;;;;;5113972;28;19930;-74
2020/12/24 03:22:10;;;;;;;;;;;13.60;72.20;;;;;;5113988;28;19924;-74
2020/12/24 03:24:36;;;;;;;;;;;13.70;71.30;;;;;;5095962;28;19931;-74
2020/12/24 03:27:03;;;;;;;;;;;13.50;71.40;;;;;;5101601;28;19924;-75
2020/12/24 03:29:29;;;;;;;;;;;13.30;75.40;;;;;;5114242;28;19924;-74
2020/12/24 03:31:56;;;;;;;;;;;13.50;72.70;;;;;;5110358;28;19947;-73
2020/12/24 03:34:22;;;;;;;;;;;13.70;72.20;;;;;;5093610;28;19947;-75
2020/12/24 03:36:48;;;;;;;;;;;13.90;72.10;;;;;;5093211;28;19931;-73
2020/12/24 03:39:15;;;;;;;;;;;13.90;70.70;;;;;;5093513;28;19927;-73
2020/12/24 03:41:41;;;;;;;;;;;14.20;70.80;;;;;;5104246;28;19924;-74
2020/12/24 03:44:07;;;;;;;;;;;14.30;69.90;;;;;;5113872;28;19928;-74
2020/12/24 03:46:34;;;;;;;;;;;14.40;69.10;;;;;;5113513;28;20217;-73
2020/12/24 03:49:00;;;;;;;;;;;14.30;69.30;;;;;;5095182;28;19924;-73
2020/12/24 03:51:26;;;;;;;;;;;14.40;69.70;;;;;;5102755;28;19939;-73
2020/12/24 03:53:53;;;;;;;;;;;14.50;68.10;;;;;;5092823;28;19924;-73
2020/12/24 03:56:19;;;;;;;;;;;14.50;69.20;;;;;;5092722;28;19924;-73
2020/12/24 03:58:45;;;;;;;;;;;14.60;69.30;;;;;;5092768;28;20412;-73
2020/12/24 04:01:11;;;;;;;;;;;14.80;68.50;;;;;;5092684;28;19931;-75
2020/12/24 04:03:38;;;;;;;;;;;14.90;68.10;;;;;;5092926;28;19978;-74
2020/12/24 04:06:05;;;;;;;;;;;15.10;67.80;;;;;;5092670;28;19932;-75
2020/12/24 04:08:31;;;;;;;;;;;15.20;66.90;;;;;;5092860;28;19947;-76
2020/12/24 04:10:58;;;;;;;;;;;15.40;66.20;;;;;;5092683;28;19931;-76
2020/12/24 04:13:24;;;;;;;;;;;15.50;65.50;;;;;;5092856;28;20003;-76
2020/12/24 04:15:52;;;;;;;;;;;15.60;65.00;;;;;;5092765;28;19924;-76
2020/12/24 04:18:18;;;;;;;;;;;15.40;65.10;;;;;;5074713;28;19930;-76
2020/12/24 04:21:00;;;;;;;;;;;15.40;65.70;;;;;;5092323;28;19925;-76
2020/12/24 04:23:26;;;;;;;;;;;15.50;65.50;;;;;;5092668;28;20494;-74
2020/12/24 04:25:52;;;;;;;;;;;15.50;65.00;;;;;;5095869;28;20320;-75
2020/12/24 04:28:18;;;;;;;;;;;15.50;64.30;;;;;;5100881;28;19924;-76
2020/12/24 04:30:45;;;;;;;;;;;15.60;65.40;;;;;;5093114;28;19946;-76
2020/12/24 04:33:12;;;;;;;;;;;15.70;65.10;;;;;;5098356;28;19928;-76
2020/12/24 04:35:38;;;;;;;;;;;15.80;64.50;;;;;;5092932;28;19931;-76
2020/12/24 04:38:05;;;;;;;;;;;15.80;64.30;;;;;;5105839;28;19924;-75
2020/12/24 04:40:32;;;;;;;;;;;15.90;65.00;;;;;;5111399;28;20379;-75
2020/12/24 04:42:59;;;;;;;;;;;16.10;64.10;;;;;;5092479;28;19924;-76
2020/12/24 04:45:26;;;;;;;;;;;16.30;63.50;;;;;;5074301;28;19924;-76
2020/12/24 04:47:57;;;;;;;;;;;16.20;63.00;;;;;;5074144;28;19928;-76
2020/12/24 04:50:27;;;;;;;;;;;16.10;63.30;;;;;;5091753;28;20304;-75
2020/12/24 04:52:54;;;;;;;;;;;15.80;64.10;;;;;;5091867;28;19924;-74
2020/12/24 04:55:21;;;;;;;;;;;15.90;64.30;;;;;;5092064;28;20360;-76
2020/12/24 04:57:48;;;;;;;;;;;15.90;63.60;;;;;;5091611;28;19924;-76
2020/12/24 05:00:15;;;;;;;;;;;15.90;64.00;;;;;;5092057;28;19947;-75
2020/12/24 05:02:42;;;;;;;;;;;15.90;63.50;;;;;;5091875;28;19931;-75
2020/12/24 05:05:08;;;;;;;;;;;15.90;63.50;;;;;;5091767;28;19924;-75
2020/12/24 05:07:34;;;;;;;;;;;16.00;63.20;;;;;;5091619;28;19949;-76
2020/12/24 05:10:00;;;;;;;;;;;15.90;62.00;;;;;;5091506;28;19931;-75
2020/12/24 05:12:28;;;;;;;;;;;16.00;62.60;;;;;;5091333;28;20412;-75
2020/12/24 05:14:54;;;;;;;;;;;16.00;62.60;;;;;;5091826;28;19957;-75
2020/12/24 05:17:21;;;;;;;;;;;16.20;63.10;;;;;;5108689;28;20307;-75
2020/12/24 05:19:58;;;;;;;;;;;16.10;62.00;;;;;;5112033;28;19931;-75
2020/12/24 05:22:25;;;;;;;;;;;16.00;63.00;;;;;;5111784;28;19923;-75
2020/12/24 05:24:51;;;;;;;;;;;15.90;63.60;;;;;;5112104;28;20410;-76
2020/12/24 05:27:22;;;;;;;;;;;15.90;62.60;;;;;;5095982;28;20410;-76
2020/12/24 05:29:49;;;;;;;;;;;15.90;62.30;;;;;;5091094;28;19943;-76
2020/12/24 05:32:25;;;;;;;;;;;15.80;60.50;;;;;;5096432;28;19931;-76
2020/12/24 05:35:01;;;;;;;;;;;15.90;63.30;;;;;;5091317;28;19924;-76
2020/12/24 05:37:27;;;;;;;;;;;16.00;63.20;;;;;;5099107;28;20022;-76
2020/12/24 05:39:53;;;;;;;;;;;16.00;62.60;;;;;;5111720;28;19924;-75
2020/12/24 05:42:21;;;;;;;;;;;16.10;62.30;;;;;;5094800;28;19931;-75
2020/12/24 05:44:49;;;;;;;;;;;16.20;61.60;;;;;;5090772;28;20257;-75
2020/12/24 05:47:15;;;;;;;;;;;16.30;61.90;;;;;;5090599;28;20383;-75
2020/12/24 05:49:41;;;;;;;;;;;16.30;60.90;;;;;;5052893;28;19928;-74
2020/12/24 05:52:09;;;;;;;;;;;16.30;61.10;;;;;;5070360;28;19931;-76
2020/12/24 05:54:35;;;;;;;;;;;16.30;61.10;;;;;;5070546;28;19924;-76
2020/12/24 05:57:02;;;;;;;;;;;16.40;60.80;;;;;;5070443;28;19925;-75
2020/12/24 05:59:30;;;;;;;;;;;16.10;61.00;;;;;;5070501;28;20049;-75
2020/12/24 06:01:59;;;;;;;;;;;16.20;61.50;;;;;;5070394;28;19924;-75
2020/12/24 06:04:27;;;;;;;;;;;16.20;61.10;;;;;;5069914;28;19932;-74
2020/12/24 06:07:01;;;;;;;;;;;16.30;60.60;;;;;;5070448;28;19928;-76
2020/12/24 06:09:34;;;;;;;;;;;16.30;61.20;;;;;;5070024;28;19925;-76
2020/12/24 06:12:08;;;;;;;;;;;16.30;60.50;;;;;;5070042;28;19924;-75
2020/12/24 06:14:35;;;;;;;;;;;16.20;60.40;;;;;;5070236;28;19925;-76
2020/12/24 06:17:03;;;;;;;;;;;16.30;60.10;;;;;;5069843;28;19924;-75
2020/12/24 06:19:29;;;;;;;;;;;16.30;60.70;;;;;;5069689;28;19924;-75
2020/12/24 06:22:11;;;;;;;;;;;16.30;60.40;;;;;;5070011;28;19970;-74
2020/12/24 06:24:42;;;;;;;;;;;16.10;59.60;;;;;;5051998;28;19932;-76
2020/12/24 06:27:27;;;;;;;;;;;16.00;60.70;;;;;;5079700;28;19923;-75
2020/12/24 06:29:58;;;;;;;;;;;16.10;61.50;;;;;;5110837;28;19923;-75
2020/12/24 06:32:25;;;;;;;;;;;16.00;60.30;;;;;;5100572;28;19946;-75
2020/12/24 06:34:51;;;;;;;;;;;16.00;60.70;;;;;;5070263;28;20494;-75
2020/12/24 06:37:18;;;;;;;;;;;16.00;61.70;;;;;;5076666;28;19924;-76
2020/12/24 06:39:45;;;;;;;;;;;16.10;61.20;;;;;;5090149;28;19924;-76
2020/12/24 06:42:30;;;;;;;;;;;16.20;61.00;;;;;;5074904;28;19933;-75
2020/12/24 06:44:56;;;;;;;;;;;16.20;60.50;;;;;;5069623;28;19944;-75
2020/12/24 06:47:22;;;;;;;;;;;16.10;59.90;;;;;;5069927;28;20407;-76
2020/12/24 06:49:49;;;;;;;;;;;16.00;59.80;;;;;;5089867;28;19924;-76
2020/12/24 06:52:31;;;;;;;;;;;16.00;60.80;;;;;;5109291;28;19923;-76
2020/12/24 06:55:12;;;;;;;;;;;15.90;60.40;;;;;;5110397;28;19935;-76
2020/12/24 06:57:40;;;;;;;;;;;15.90;60.20;;;;;;5110204;28;20315;-75
2020/12/24 07:00:23;;;;;;;;;;;15.90;61.20;;;;;;5110294;28;19928;-75
2020/12/24 07:02:50;;;;;;;;;;;16.10;61.40;;;;;;5110149;28;20304;-75
2020/12/24 07:05:35;;;;;;;;;;;16.20;59.30;;;;;;5110063;28;20543;-75
2020/12/24 07:08:02;;;;;;;;;;;16.30;60.10;;;;;;5110120;28;19924;-76
2020/12/24 07:10:45;;;;;;;;;;;16.30;59.80;;;;;;5091948;28;19930;-76
2020/12/24 07:13:30;;;;;;;;;;;16.40;59.10;;;;;;5109859;28;20006;-75
2020/12/24 07:15:56;;;;;;;;;;;16.50;58.10;;;;;;5103689;28;19932;-75
2020/12/24 07:18:27;;;;;;;;;;;16.50;59.60;;;;;;5089926;28;19931;-76
2020/12/24 07:20:54;;;;;;;;;;;16.60;58.50;;;;;;5090099;28;19924;-76
2020/12/24 07:23:29;;;;;;;;;;;16.60;58.10;;;;;;5089677;28;19950;-76
2020/12/24 07:25:59;;;;;;;;;;;16.40;57.60;;;;;;5093211;28;19931;-76
2020/12/24 07:28:29;;;;;;;;;;;16.50;59.80;;;;;;5110232;28;19923;-76
2020/12/24 07:30:59;;;;;;;;;;;16.50;58.90;;;;;;5109826;28;19924;-76
2020/12/24 07:33:26;;;;;;;;;;;16.50;57.70;;;;;;5093092;28;19924;-76
2020/12/24 07:35:53;;;;;;;;;;;16.30;58.70;;;;;;5089417;28;19935;-76
2020/12/24 07:38:37;;;;;;;;;;;16.30;59.10;;;;;;5105117;28;20434;-76
2020/12/24 07:41:03;;;;;;;;;;;16.20;58.40;;;;;;5104234;28;19943;-76
2020/12/24 07:43:30;;;;;;;;;;;16.30;59.80;;;;;;5071393;28;19931;-76
2020/12/24 07:46:05;;;;;;;;;;;16.30;59.40;;;;;;5071750;28;19935;-76
2020/12/24 07:48:31;;;;;;;;;;;16.40;59.20;;;;;;5089375;28;19932;-76
2020/12/24 07:51:06;;;;;;;;;;;16.30;59.50;;;;;;5071046;28;19928;-79
2020/12/24 07:53:32;;;;;;;;;;;16.20;57.30;;;;;;5071627;28;19935;-76
2020/12/24 07:56:05;;;;;;;;;;;16.00;60.40;;;;;;5096559;28;19923;-78
2020/12/24 07:58:31;;;;;;;;;;;16.00;58.50;;;;;;5103874;28;20327;-78
2020/12/24 08:01:01;;;;;;;;;;;16.10;60.50;;;;;;5107298;28;19924;-78
2020/12/24 08:03:27;;;;;;;;;;;16.30;59.80;;;;;;5107637;28;20023;-79
2020/12/24 08:06:05;;;;;;;;;;;16.10;59.00;;;;;;5112673;28;19924;-79
2020/12/24 08:08:37;;;;;;;;;;;15.90;60.20;;;;;;5113339;28;19930;-79
2020/12/24 08:11:07;;;;;;;;;;;16.00;60.40;;;;;;5112612;28;19927;-78
2020/12/24 08:13:33;;;;;;;;;;;16.20;59.90;;;;;;5111134;28;20020;-79
2020/12/24 08:16:00;;;;;;;;;;;16.20;59.40;;;;;;5109301;28;19924;-79
2020/12/24 08:18:30;;;;;;;;;;;16.30;60.10;;;;;;5095696;28;20327;-78
2020/12/24 08:21:04;;;;;;;;;;;16.40;60.50;;;;;;5110346;28;20010;-78
2020/12/24 08:23:39;;;;;;;;;;;16.40;60.10;;;;;;5100645;28;20559;-79
2020/12/24 08:26:07;;;;;;;;;;;16.50;60.20;;;;;;5103019;28;20007;-79
2020/12/24 08:28:34;;;;;;;;;;;16.60;60.70;;;;;;5111304;28;19930;-78
2020/12/24 08:31:06;;;;;;;;;;;16.50;59.40;;;;;;5110149;28;19923;-80
2020/12/24 08:33:33;;;;;;;;;;;16.60;59.70;;;;;;5106791;28;19927;-78
2020/12/24 08:36:15;;;;;;;;;;;16.80;59.10;;;;;;5108451;28;19924;-80
2020/12/24 08:38:41;;;;;;;;;;;15.60;57.10;;;;;;5093961;28;19930;-79
2020/12/24 08:41:18;;;;;;;;;;;13.50;63.00;;;;;;5106654;28;19930;-77
2020/12/24 08:43:49;;;;;;;;;;;12.70;64.90;;;;;;5103336;28;20391;-78
2020/12/24 08:46:15;;;;;;;;;;;12.20;68.30;;;;;;5112080;28;19932;-78
2020/12/24 08:48:42;;;;;;;;;;;12.20;73.70;;;;;;5112307;28;19924;-78
2020/12/24 08:51:15;;;;;;;;;;;11.90;66.90;;;;;;5104764;28;19951;-76
2020/12/24 08:54:04;;;;;;;;;;;11.90;70.50;;;;;;5097497;28;20028;-75
2020/12/24 08:56:32;;;;;;;;;;;11.80;71.00;;;;;;5112481;28;20090;-73
2020/12/24 08:58:59;;;;;;;;;;;12.10;71.20;;;;;;5111495;28;19924;-77
2020/12/24 09:01:25;;;;;;;;;;;11.50;68.30;;;;;;5095507;28;19931;-77
2020/12/24 09:03:51;;;;;;;;;;;11.50;68.80;;;;;;5090247;28;19932;-76
2020/12/24 09:06:18;;;;;;;;;;;11.20;69.70;;;;;;5073607;28;20430;-73
2020/12/24 09:08:49;;;;;;;;;;;11.60;71.10;;;;;;5086641;28;19924;-74
2020/12/24 09:11:28;;;;;;;;;;;11.80;72.80;;;;;;5111223;28;19923;-73
2020/12/24 09:13:57;;;;;;;;;;;11.90;70.60;;;;;;5110333;28;19938;-76
2020/12/24 09:16:24;;;;;;;;;;;12.50;70.20;;;;;;5090550;28;20311;-76
2020/12/24 09:19:06;;;;;;;;;;;12.40;66.40;;;;;;5084284;28;19996;-81
2020/12/24 09:21:33;;;;;;;;;;;11.70;65.40;;;;;;5109645;28;20026;-73
2020/12/24 09:24:10;;;;;;;;;;;12.00;70.30;;;;;;5110379;28;19970;-73
2020/12/24 09:26:49;;;;;;;;;;;11.90;65.20;;;;;;5095758;28;19924;-74
2020/12/24 09:29:16;;;;;;;;;;;11.70;68.90;;;;;;5096996;28;19931;-73
2020/12/24 09:31:57;;;;;;;;;;;12.10;66.80;;;;;;5111510;28;19924;-74
2020/12/24 09:34:24;;;;;;;;;;;11.80;66.50;;;;;;5101075;28;19924;-74
2020/12/24 09:36:50;;;;;;;;;;;12.10;66.80;;;;;;5110695;28;19944;-73
2020/12/24 09:39:17;;;;;;;;;;;11.90;67.50;;;;;;5111196;28;19976;-74
2020/12/24 09:41:44;;;;;;;;;;;12.70;67.70;;;;;;5110610;28;19943;-74
2020/12/24 09:44:11;;;;;;;;;;;13.30;63.10;;;;;;5111354;28;20395;-74
2020/12/24 09:46:37;;;;;;;;;;;13.40;65.10;;;;;;5107082;28;19931;-73
2020/12/24 09:49:04;;;;;;;;;;;13.50;64.50;;;;;;5108417;28;20388;-74
2020/12/24 09:51:31;;;;;;;;;;;13.10;61.20;;;;;;5105425;28;19931;-75
2020/12/24 09:53:57;;;;;;;;;;;13.30;67.30;;;;;;5103835;28;19927;-74
2020/12/24 09:56:23;;;;;;;;;;;13.90;65.00;;;;;;5101023;28;19965;-73
2020/12/24 09:58:49;;;;;;;;;;;14.20;58.80;;;;;;5091791;28;19984;-75
2020/12/24 10:01:16;;;;;;;;;;;14.20;59.00;;;;;;5109615;28;19963;-74
2020/12/24 10:03:42;;;;;;;;;;;14.00;58.90;;;;;;5110896;28;19924;-74
2020/12/24 10:06:09;;;;;;;;;;;13.90;63.00;;;;;;5109487;28;19924;-74
2020/12/24 10:08:35;;;;;;;;;;;13.50;61.90;;;;;;5109139;28;19930;-74
2020/12/24 10:11:02;;;;;;;;;;;13.60;60.00;;;;;;5108990;28;19924;-74
2020/12/24 10:13:28;;;;;;;;;;;13.40;61.40;;;;;;5109412;28;19924;-74
2020/12/24 10:15:55;;;;;;;;;;;13.60;61.00;;;;;;5102436;28;19931;-74
2020/12/24 10:18:21;;;;;;;;;;;13.10;61.60;;;;;;5088548;28;20372;-74
2020/12/24 10:20:48;;;;;;;;;;;13.40;62.60;;;;;;5090544;28;19928;-74
2020/12/24 10:23:14;;;;;;;;;;;13.30;64.90;;;;;;5090667;28;19924;-74
2020/12/24 10:25:40;;;;;;;;;;;13.60;61.50;;;;;;5092390;28;19924;-73
2020/12/24 10:28:06;;;;;;;;;;;13.30;63.20;;;;;;5111023;28;19924;-74
2020/12/24 10:30:33;;;;;;;;;;;13.70;63.60;;;;;;5110500;28;20375;-73
2020/12/24 10:32:59;;;;;;;;;;;14.10;60.60;;;;;;5098033;28;19924;-74
2020/12/24 10:35:26;;;;;;;;;;;14.50;59.60;;;;;;5090297;28;20329;-74
2020/12/24 10:37:52;;;;;;;;;;;14.60;57.60;;;;;;5102027;28;19931;-74
2020/12/24 10:40:18;;;;;;;;;;;14.10;60.00;;;;;;5110502;28;20407;-74
2020/12/24 10:42:47;;;;;;;;;;;14.30;64.60;;;;;;5090446;28;20399;-76
2020/12/24 10:45:14;;;;;;;;;;;14.40;57.40;;;;;;5090181;28;20398;-76
2020/12/24 10:47:40;;;;;;;;;;;14.60;61.70;;;;;;5090336;28;20422;-76
2020/12/24 10:50:08;;;;;;;;;;;14.20;58.20;;;;;;5090342;28;19939;-74
2020/12/24 10:52:34;;;;;;;;;;;14.00;59.90;;;;;;5089933;28;19928;-75
2020/12/24 10:55:08;;;;;;;;;;;13.60;63.20;;;;;;5090020;28;19943;-74
2020/12/24 10:57:34;;;;;;;;;;;13.20;60.30;;;;;;5090222;28;19924;-74
2020/12/24 11:00:00;;;;;;;;;;;13.00;62.70;;;;;;5090051;28;19931;-74
2020/12/24 11:02:27;;;;;;;;;;;12.90;61.50;;;;;;5089962;28;19985;-74
2020/12/24 11:04:53;;;;;;;;;;;12.90;64.50;;;;;;5089901;28;19931;-75
2020/12/24 11:07:19;;;;;;;;;;;12.90;67.40;;;;;;5090227;28;19924;-74
2020/12/24 11:09:45;;;;;;;;;;;13.20;69.70;;;;;;5090007;28;19924;-73
2020/12/24 11:12:12;;;;;;;;;;;13.20;61.00;;;;;;5089543;28;19931;-74
2020/12/24 11:14:38;;;;;;;;;;;13.20;61.30;;;;;;5089792;28;19924;-75
2020/12/24 11:17:05;;;;;;;;;;;13.30;65.30;;;;;;5089727;28;19925;-75
2020/12/24 11:19:32;;;;;;;;;;;12.90;61.00;;;;;;5089718;28;19931;-74
2020/12/24 11:21:58;;;;;;;;;;;13.10;63.00;;;;;;5089743;28;19924;-74
2020/12/24 11:24:24;;;;;;;;;;;13.20;67.70;;;;;;5089663;28;19925;-74
2020/12/24 11:26:50;;;;;;;;;;;13.30;67.30;;;;;;5089662;28;20392;-75
2020/12/24 11:29:17;;;;;;;;;;;13.80;63.20;;;;;;5071878;28;19924;-72
2020/12/24 11:31:43;;;;;;;;;;;13.70;64.40;;;;;;5076487;28;19931;-72
2020/12/24 11:34:09;;;;;;;;;;;13.80;65.50;;;;;;5097097;28;19924;-72
2020/12/24 11:36:36;;;;;;;;;;;13.40;59.60;;;;;;5094529;28;19931;-73
2020/12/24 11:39:03;;;;;;;;;;;12.40;61.70;;;;;;5113801;28;19924;-72
2020/12/24 11:41:30;;;;;;;;;;;11.80;69.60;;;;;;5104432;28;19934;-72
2020/12/24 11:43:57;;;;;;;;;;;11.30;73.50;;;;;;5075516;28;19960;-72
2020/12/24 11:46:24;;;;;;;;;;;11.60;71.10;;;;;;5093369;28;19938;-72
2020/12/24 11:48:51;;;;;;;;;;;11.30;69.40;;;;;;5093122;28;20306;-72
2020/12/24 11:51:18;;;;;;;;;;;11.40;71.10;;;;;;5093168;28;19940;-72
2020/12/24 11:53:44;;;;;;;;;;;11.80;72.70;;;;;;5093102;28;19924;-71
2020/12/24 11:56:11;;;;;;;;;;;12.40;68.80;;;;;;5093267;28;20319;-72
2020/12/24 11:58:38;;;;;;;;;;;12.10;70.80;;;;;;5092895;28;19944;-72
2020/12/24 12:01:05;;;;;;;;;;;12.40;67.40;;;;;;5093177;28;20226;-73
2020/12/24 12:03:31;;;;;;;;;;;12.00;69.40;;;;;;5092953;28;20284;-72
2020/12/24 12:05:57;;;;;;;;;;;12.10;71.30;;;;;;5092992;28;19928;-72
2020/12/24 12:08:24;;;;;;;;;;;11.80;75.40;;;;;;5092571;28;19928;-73
2020/12/24 12:10:50;;;;;;;;;;;12.10;69.50;;;;;;5093123;28;19927;-72
2020/12/24 12:13:16;;;;;;;;;;;11.60;67.70;;;;;;5092899;28;19931;-74
2020/12/24 12:15:42;;;;;;;;;;;11.20;68.70;;;;;;5092985;28;20323;-73
2020/12/24 12:18:09;;;;;;;;;;;11.20;71.90;;;;;;5092796;28;19955;-73
2020/12/24 12:20:35;;;;;;;;;;;11.10;71.60;;;;;;5092597;28;19940;-73
2020/12/24 12:23:02;;;;;;;;;;;10.50;75.80;;;;;;5074774;28;19935;-72
2020/12/24 12:25:29;;;;;;;;;;;10.80;77.50;;;;;;5092925;28;19963;-72
2020/12/24 12:27:56;;;;;;;;;;;10.70;77.30;;;;;;5092538;28;20388;-72
2020/12/24 12:30:22;;;;;;;;;;;11.10;76.10;;;;;;5092386;28;19932;-73
2020/12/24 12:32:48;;;;;;;;;;;10.50;76.40;;;;;;5098016;28;19928;-73
2020/12/24 12:35:14;;;;;;;;;;;10.60;76.40;;;;;;5092655;28;19931;-72
2020/12/24 12:37:41;;;;;;;;;;;10.60;73.80;;;;;;5102880;28;19924;-72
2020/12/24 12:40:07;;;;;;;;;;;10.50;74.00;;;;;;5094621;28;19935;-73
2020/12/24 12:42:33;;;;;;;;;;;10.60;76.10;;;;;;5094214;28;19924;-73
2020/12/24 12:45:00;;;;;;;;;;;10.80;73.00;;;;;;5074486;28;19924;-73
2020/12/24 12:47:27;;;;;;;;;;;10.80;73.30;;;;;;5074335;28;20355;-73
2020/12/24 12:49:53;;;;;;;;;;;10.80;71.90;;;;;;5092131;28;19947;-73
2020/12/24 12:52:20;;;;;;;;;;;10.70;70.40;;;;;;5092247;28;19932;-73
2020/12/24 12:54:46;;;;;;;;;;;10.40;71.80;;;;;;5092148;28;19924;-73
2020/12/24 12:57:15;;;;;;;;;;;10.50;74.70;;;;;;5074220;28;19931;-73
2020/12/24 12:59:41;;;;;;;;;;;10.50;72.40;;;;;;5092579;28;19924;-73
2020/12/24 13:02:07;;;;;;;;;;;10.60;71.30;;;;;;5092107;28;19928;-73
2020/12/24 13:04:34;;;;;;;;;;;10.60;72.00;;;;;;5092375;28;20001;-73
2020/12/24 13:07:00;;;;;;;;;;;10.50;71.10;;;;;;5091800;28;19936;-73
2020/12/24 13:09:27;;;;;;;;;;;10.60;70.70;;;;;;5091503;28;20161;-73
2020/12/24 13:11:53;;;;;;;;;;;10.70;71.50;;;;;;5091934;28;19931;-74
2020/12/24 13:14:20;;;;;;;;;;;11.10;68.40;;;;;;5092073;28;19924;-73
2020/12/24 13:16:47;;;;;;;;;;;11.10;73.60;;;;;;5091694;28;19931;-72
2020/12/24 13:19:14;;;;;;;;;;;11.10;69.00;;;;;;5091660;28;20403;-73
2020/12/24 13:21:40;;;;;;;;;;;11.30;68.90;;;;;;5091544;28;19932;-73
2020/12/24 13:24:06;;;;;;;;;;;11.00;70.00;;;;;;5091359;28;19928;-73
2020/12/24 13:26:56;;;;;;;;;;;11.20;67.60;;;;;;5091672;28;20016;-73
2020/12/24 13:29:23;;;;;;;;;;;11.10;67.80;;;;;;5091509;28;20081;-73
2020/12/24 13:31:49;;;;;;;;;;;10.80;69.10;;;;;;5094654;28;20280;-73
2020/12/24 13:34:16;;;;;;;;;;;10.80;71.70;;;;;;5093675;28;20316;-73
2020/12/24 13:36:46;;;;;;;;;;;11.10;72.70;;;;;;5075035;28;19932;-72
2020/12/24 13:39:13;;;;;;;;;;;11.30;69.50;;;;;;5111960;28;20054;-73
2020/12/24 13:41:40;;;;;;;;;;;11.30;66.90;;;;;;5100580;28;19924;-73
2020/12/24 13:44:06;;;;;;;;;;;11.30;68.40;;;;;;5091110;28;19934;-73
2020/12/24 13:46:32;;;;;;;;;;;11.00;67.80;;;;;;5090911;28;20285;-73
2020/12/24 13:48:59;;;;;;;;;;;10.90;68.50;;;;;;5090842;28;19924;-73
2020/12/24 13:51:25;;;;;;;;;;;10.90;68.00;;;;;;5090513;28;19924;-73
2020/12/24 13:53:51;;;;;;;;;;;10.90;70.80;;;;;;5090673;28;19924;-73
2020/12/24 13:56:18;;;;;;;;;;;11.00;67.40;;;;;;5091034;28;19924;-73
2020/12/24 13:58:44;;;;;;;;;;;11.00;66.30;;;;;;5090613;28;19925;-73
2020/12/24 14:01:12;;;;;;;;;;;10.70;67.50;;;;;;5090645;28;19928;-73
2020/12/24 14:03:42;;;;;;;;;;;10.70;69.30;;;;;;5090584;28;19950;-73
2020/12/24 14:06:09;;;;;;;;;;;10.80;67.50;;;;;;5090551;28;19924;-73
2020/12/24 14:08:35;;;;;;;;;;;10.70;72.30;;;;;;5090661;28;19931;-73
2020/12/24 14:11:02;;;;;;;;;;;10.50;68.40;;;;;;5090620;28;19976;-73
2020/12/24 14:13:28;;;;;;;;;;;10.40;67.80;;;;;;5090469;28;20403;-72
2020/12/24 14:16:01;;;;;;;;;;;10.20;65.00;;;;;;5090459;28;19932;-72
2020/12/24 14:18:28;;;;;;;;;;;10.00;66.20;;;;;;5090463;28;20323;-73
2020/12/24 14:20:54;;;;;;;;;;;10.00;70.10;;;;;;5090337;28;19967;-73